Latest Weather Observations for Tasman Island

IDT60901

Issued at 12:41 pm EDT Monday 2 February 2015 (issued every 10 minutes, with the page automatically refreshed every 10 minutes)

About weather observations | Map of Hobart area stations | Latest observations for Hobart area | Other Formats
Station Details ID: 094155 Name: TASMAN ISLAND Lat: -43.24 Lon: 148.00 Height: 240.0 m
Data from the previous 72 hours. | See also: Recent months at Tasman Island
Date/Time
EDT
Tmp

°C
App
Tmp
°C
Dew
Point
°C
Rel
Hum
%
Delta-T

°C
Wind Press
QNH
hPa
Press
MSL
hPa
Rain
since
9 am
mm
Dir
 
Spd
km/h
Gust
km/h
Spd
kts
Gust
kts
02/12:31pm 13.0 7.2 8.1 72 2.4 SW 28 65 15 35 1018.7 1018.5 0.0
02/12:30pm 13.1 7.7 8.2 72 2.5 SW 26 65 14 35 1018.9 1018.6 0.0
02/12:02pm 12.8 7.1 8.5 75 2.2 SW 28 48 15 26 1019.2 1018.9 0.0
02/12:00pm 13.2 8.0 8.9 75 2.2 SW 26 48 14 26 1019.2 1018.9 0.0
02/11:30am 12.6 4.1 8.5 76 2.1 SW 43 67 23 36 1019.2 1018.9 0.0
02/11:00am 11.7 5.8 9.1 84 1.3 SW 30 61 16 33 1019.2 1018.9 0.0
02/10:53am 11.9 6.4 9.3 84 1.3 SW 28 61 15 33 1019.3 1019.0 0.0
02/10:30am 12.1 7.1 8.0 76 2.0 WSW 24 59 13 32 1018.9 1018.6 0.0
02/10:00am 12.5 6.6 7.4 71 2.5 SW 28 57 15 31 1018.4 1018.2 0.0
02/09:57am 12.4 6.4 7.1 70 2.6 SW 28 57 15 31 1018.4 1018.2 0.0
02/09:30am 12.3 7.5 7.4 72 2.4 SW 22 56 12 30 1017.9 1017.7 0.0
02/09:00am 11.7 7.2 7.0 73 2.3 WSW 20 43 11 23 1017.9 1017.7 0.4
02/08:30am 12.2 7.7 7.1 71 2.5 SW 20 46 11 25 1017.8 1017.6 0.4
02/08:00am 11.6 6.8 7.5 76 2.0 WSW 22 50 12 27 1017.3 1017.1 0.4
02/07:30am 11.3 6.5 7.4 77 1.9 SW 22 56 12 30 1017.2 1016.9 0.4
02/07:00am 11.3 6.0 6.8 74 2.2 SW 24 46 13 25 1016.8 1016.5 0.4
02/06:30am 11.3 3.9 6.8 74 2.2 SW 35 56 19 30 1016.7 1016.4 0.4
02/06:00am 11.3 4.6 5.8 69 2.6 SW 30 59 16 32 1016.4 1016.1 0.4
02/05:30am 11.4 4.8 7.7 78 1.8 SW 32 54 17 29 1016.2 1015.9 0.4
02/05:00am 11.5 4.0 8.0 79 1.7 SW 37 59 20 32 1016.2 1015.9 0.4
02/04:30am 11.4 4.2 7.5 77 1.9 SW 35 56 19 30 1016.3 1016.0 0.4
02/04:00am 11.0 4.7 9.1 88 1.0 SW 32 57 17 31 1016.5 1016.2 0.4
02/03:36am 11.4 4.6 7.9 79 1.7 SW 33 54 18 29 1016.5 1016.2 0.4
02/03:30am 11.3 3.9 8.3 82 1.5 SW 37 52 20 28 1016.5 1016.2 0.4
02/03:18am 11.3 5.7 8.9 85 1.2 SW 28 50 15 27 1016.6 1016.3 0.4
02/03:00am 10.8 6.5 9.4 91 0.7 SW 22 52 12 28 1016.7 1016.4 0.4
02/02:30am 11.4 4.7 8.3 81 1.5 SW 33 57 18 31 1016.7 1016.4 0.2
02/02:00am 11.2 4.8 8.6 84 1.3 SW 32 52 17 28 1016.8 1016.5 0.2
02/01:30am 10.9 5.6 10.0 94 0.5 SSW 28 46 15 25 1017.1 1016.8 0.2
02/01:02am 11.5 6.3 10.1 91 0.7 SSW 28 46 15 25 1017.1 1016.8 0.2
02/01:00am 11.4 6.5 9.8 90 0.8 SSW 26 41 14 22 1017.1 1016.8 0.2
02/12:38am 11.2 6.1 10.7 97 0.3 SSW 28 48 15 26 1017.1 1016.8 0.2
02/12:30am 10.8 6.5 10.6 99 0.1 SW 24 39 13 21 1017.2 1016.9 0.2
02/12:00am 10.4 5.6 10.2 99 0.1 SSW 26 39 14 21 1017.3 1017.1 0.2
 
Date/Time
EDT
Tmp

°C
App
Tmp
°C
Dew
Point
°C
Rel
Hum
%
Delta-T

°C
Wind Press
QNH
hPa
Press
MSL
hPa
Rain
since
9 am
mm
Dir
 
Spd
km/h
Gust
km/h
Spd
kts
Gust
kts
01/11:48pm 10.7 5.6 10.5 99 0.1 SSW 28 48 15 26 1017.2 1016.9 0.2
01/11:30pm 11.0 6.7 10.7 98 0.2 SSW 24 33 13 18 1017.3 1017.1 0.2
01/11:00pm 10.9 6.0 10.1 95 0.4 SSW 26 35 14 19 1017.4 1017.2 0.2
01/10:30pm 11.6 6.7 10.0 90 0.8 SSW 26 43 14 23 1017.4 1017.2 0.2
01/10:00pm 10.8 6.8 8.9 88 1.0 SSW 20 39 11 21 1017.6 1017.4 0.2
01/09:30pm 11.5 6.5 8.2 80 1.6 SSW 24 35 13 19 1017.4 1017.2 0.2
01/09:00pm 11.4 5.3 6.5 72 2.3 SSW 28 43 15 23 1017.1 1016.8 0.2
01/08:30pm 11.4 4.5 6.3 71 2.4 SSW 32 52 17 28 1016.8 1016.5 0.2
01/08:00pm 11.1 4.8 5.8 70 2.5 SSW 28 46 15 25 1016.7 1016.4 0.2
01/07:30pm 11.2 4.3 6.3 72 2.3 SSW 32 48 17 26 1016.4 1016.1 0.2
01/07:00pm 11.2 4.4 7.1 76 2.0 SSW 32 44 17 24 1016.1 1015.8 0.2
01/06:30pm 11.2 4.4 7.1 76 2.0 SSW 32 48 17 26 1015.8 1015.5 0.2
01/06:00pm 11.0 4.9 8.4 84 1.3 SSW 30 46 16 25 1015.7 1015.4 0.2
01/05:30pm 11.2 5.4 8.1 81 1.5 SSW 28 44 15 24 1015.7 1015.4 0.2
01/05:00pm 11.4 5.2 7.7 78 1.8 SSW 30 39 16 21 1015.6 1015.3 0.2
01/04:30pm 11.3 5.0 7.6 78 1.8 SSW 30 44 16 24 1015.4 1015.1 0.2
01/04:00pm 10.8 3.9 8.7 87 1.0 SSW 35 48 19 26 1015.3 1015.0 0.2
01/03:30pm 11.3 4.8 8.9 85 1.2 SSW 33 48 18 26 1015.2 1014.9 0.2
01/03:00pm 11.5 4.9 8.4 81 1.5 SSW 33 44 18 24 1015.1 1014.8 0.2
01/02:30pm 11.6 5.0 8.6 82 1.5 SSW 33 46 18 25 1015.0 1014.7 0.2
01/02:00pm 11.3 3.9 8.2 81 1.5 SSW 37 52 20 28 1014.7 1014.4 0.2
01/01:45pm 11.1 4.7 8.7 85 1.2 SSW 32 50 17 27 1014.8 1014.5 0.2
01/01:30pm 11.3 5.1 9.4 88 1.0 SSW 32 44 17 24 1014.8 1014.5 0.2
01/01:01pm 11.3 5.7 8.7 84 1.3 SSW 28 46 15 25 1014.8 1014.5 0.2
01/01:00pm 11.2 5.2 8.6 84 1.3 SSW 30 46 16 25 1014.8 1014.5 0.2
01/12:30pm 11.2 4.9 9.1 87 1.1 SSW 32 43 17 23 1014.7 1014.4 0.2
01/12:00pm 10.9 4.5 9.5 91 0.7 SSW 33 48 18 26 1014.8 1014.5 0.2
01/11:30am 10.6 5.2 9.4 92 0.6 SSW 28 44 15 24 1014.7 1014.4 0.2
01/11:00am 10.3 3.6 9.7 96 0.3 SSW 35 46 19 25 1014.5 1014.2 0.2
01/10:30am 10.9 4.6 9.0 88 1.0 SSW 32 43 17 23 1014.2 1014.0 0.0
01/10:00am 10.7 4.7 8.8 88 0.9 SSW 30 44 16 24 1014.0 1013.8 0.0
01/09:51am 10.7 4.9 9.3 91 0.7 SSW 30 50 16 27 1014.0 1013.8 0.0
01/09:30am 10.4 5.0 9.5 94 0.5 SSW 28 43 15 23 1013.8 1013.6 0.0
01/09:00am 10.5 3.6 8.9 90 0.8 SSW 35 44 19 24 1013.6 1013.4 3.8
01/08:36am 10.6 4.9 8.2 85 1.2 SSW 28 48 15 26 1013.3 1013.0 3.8
01/08:30am 10.9 5.5 7.8 81 1.5 SSW 26 43 14 23 1013.3 1013.0 3.8
01/08:13am 10.9 4.1 6.8 76 2.0 SSW 32 52 17 28 1013.0 1012.7 3.8
01/08:00am 10.8 3.9 7.1 78 1.8 SSW 33 46 18 25 1012.9 1012.6 3.8
01/07:46am 10.9 5.0 7.6 80 1.6 SSW 28 50 15 27 1012.7 1012.4 3.8
01/07:30am 10.9 3.7 7.6 80 1.6 SSW 35 50 19 27 1012.5 1012.2 3.8
01/07:00am 11.0 4.3 7.3 78 1.8 SSW 32 43 17 23 1012.3 1012.0 3.8
01/06:30am 10.9 4.2 8.0 82 1.4 SSW 33 44 18 24 1011.9 1011.6 3.8
01/06:00am 10.9 4.7 8.0 82 1.4 SSW 30 48 16 26 1011.8 1011.5 3.8
01/05:32am 10.9 4.0 8.7 86 1.1 SSW 35 54 19 29 1011.6 1011.3 3.8
01/05:30am 10.9 3.6 8.7 86 1.1 SSW 37 54 20 29 1011.6 1011.3 3.8
01/05:00am 10.5 3.7 9.1 91 0.7 SSW 35 48 19 26 1011.6 1011.3 3.8
01/04:41am 10.8 4.5 8.9 88 1.0 SSW 32 50 17 27 1011.5 1011.2 3.8
01/04:30am 10.7 3.6 9.5 92 0.6 SSW 37 56 20 30 1011.5 1011.2 3.8
01/04:00am 11.2 4.1 8.2 82 1.5 SSW 35 52 19 28 1011.4 1011.1 3.8
01/03:30am 11.0 4.4 8.4 84 1.3 SSW 33 56 18 30 1011.5 1011.2 3.8
01/03:21am 10.9 4.5 8.5 85 1.2 SSW 32 56 17 30 1011.5 1011.2 3.8
01/03:00am 11.1 4.0 8.0 81 1.5 SSW 35 48 19 26 1011.5 1011.2 3.8
01/02:30am 11.0 4.3 8.1 82 1.4 SSW 33 48 18 26 1011.5 1011.2 3.8
01/02:00am 11.1 4.7 8.7 85 1.2 SSW 32 44 17 24 1011.8 1011.5 3.8
01/01:30am 10.8 3.8 8.4 85 1.2 SSW 35 46 19 25 1011.8 1011.5 3.8
01/01:06am 11.1 4.8 9.0 87 1.1 SSW 32 50 17 27 1012.0 1011.7 3.8
01/01:00am 11.1 4.7 9.5 90 0.8 SSW 33 50 18 27 1012.0 1011.7 3.8
01/12:30am 11.0 4.9 9.8 92 0.6 SSW 32 50 17 27 1012.0 1011.7 3.8
01/12:00am 11.0 4.3 9.8 92 0.6 SSW 35 50 19 27 1012.1 1011.8 3.8
 
Date/Time
EDT
Tmp

°C
App
Tmp
°C
Dew
Point
°C
Rel
Hum
%
Delta-T

°C
Wind Press
QNH
hPa
Press
MSL
hPa
Rain
since
9 am
mm
Dir
 
Spd
km/h
Gust
km/h
Spd
kts
Gust
kts
31/11:30pm 11.0 4.9 10.5 97 0.3 SSW 33 50 18 27 1012.1 1011.8 3.8
31/11:00pm 11.3 6.3 10.8 97 0.3 SSW 28 43 15 23 1012.3 1012.0 3.8
31/10:30pm 11.3 5.4 10.5 95 0.4 SSW 32 43 17 23 1012.3 1012.0 3.8
31/10:00pm 11.5 5.8 11.2 98 0.2 SSW 32 44 17 24 1012.3 1012.0 3.8
31/09:30pm 11.5 6.2 11.3 99 0.1 SSW 30 43 16 23 1012.0 1011.7 3.8
31/09:00pm 11.4 6.5 11.2 99 0.1 SSW 28 43 15 23 1011.8 1011.5 3.8
31/08:30pm 11.4 5.7 11.2 99 0.1 SSW 32 44 17 24 1011.5 1011.2 3.8
31/08:00pm 11.5 5.8 11.3 99 0.1 SSW 32 46 17 25 1011.4 1011.1 3.8
31/07:30pm 11.2 5.5 11.0 99 0.1 SSW 32 50 17 27 1011.2 1010.9 3.8
31/07:00pm 11.3 5.4 11.3 100 0.0 SSW 33 46 18 25 1011.1 1010.8 3.8
31/06:30pm 11.5 6.3 11.5 100 0.0 SSW 30 48 16 26 1011.0 1010.7 3.6
31/06:01pm 11.6 6.4 11.6 100 0.0 SSW 30 48 16 26 1010.8 1010.5 3.4
31/06:00pm 11.6 6.0 11.6 100 0.0 SSW 32 48 17 26 1010.8 1010.5 3.4
31/05:30pm 11.7 6.2 11.7 100 0.0 SSW 32 44 17 24 1010.6 1010.3 3.4
31/05:00pm 11.7 7.3 11.7 100 0.0 SSW 26 39 14 21 1010.7 1010.4 3.0
31/04:30pm 11.7 7.3 11.7 100 0.0 S 26 44 14 24 1010.5 1010.2 2.8
31/04:07pm 11.8 6.7 11.8 100 0.0 SSW 30 48 16 26 1010.5 1010.2 2.6
31/04:00pm 11.5 5.9 11.5 100 0.0 SSW 32 48 17 26 1010.5 1010.2 2.6
31/03:59pm 11.5 6.3 11.5 100 0.0 SSW 30 48 16 26 1010.4 1010.1 2.6
31/03:30pm 11.7 7.3 11.7 100 0.0 SSW 26 44 14 24 1010.4 1010.1 2.6
31/03:00pm 11.6 7.2 11.6 100 0.0 SSW 26 41 14 22 1010.4 1010.1 2.2
31/02:30pm 11.6 7.2 11.6 100 0.0 SSW 26 39 14 21 1010.4 1010.1 2.2
31/02:00pm 11.6 7.2 11.6 100 0.0 S 26 48 14 26 1010.5 1010.2 2.0
31/01:30pm 11.7 7.3 11.7 100 0.0 S 26 43 14 23 1010.6 1010.3 1.4
31/01:15pm 11.6 6.8 11.6 100 0.0 S 28 46 15 25 1010.7 1010.4 1.2
31/01:00pm 11.7 7.3 11.7 100 0.0 S 26 43 14 23 1010.7 1010.4 1.0
31/12:30pm 11.8 7.0 11.8 100 0.0 S 28 48 15 26 1010.7 1010.4 0.6
31/12:22pm 11.6 6.8 11.6 100 0.0 S 28 48 15 26 1010.7 1010.4 0.6
31/12:00pm 11.8 7.4 11.8 100 0.0 S 26 44 14 24 1010.9 1010.6 0.4
31/11:30am 11.7 7.3 11.7 100 0.0 S 26 41 14 22 1010.9 1010.6 0.2
31/11:00am 11.9 7.9 11.9 100 0.0 S 24 39 13 21 1011.0 1010.7 0.2
31/10:30am 11.8 7.0 11.8 100 0.0 S 28 46 15 25 1010.9 1010.6 0.2
31/10:07am 11.8 7.0 11.8 100 0.0 S 28 46 15 25 1011.0 1010.7 0.2
31/10:00am 11.7 7.3 11.7 100 0.0 S 26 50 14 27 1011.1 1010.8 0.0
31/09:36am 11.7 6.5 11.7 100 0.0 S 30 50 16 27 1011.0 1010.7 0.0
31/09:30am 11.7 6.9 11.7 100 0.0 S 28 46 15 25 1011.0 1010.7 0.0
31/09:00am 11.7 7.3 11.7 100 0.0 SSW 26 44 14 24 1011.1 1010.8 2.8
31/08:37am 11.6 6.8 11.6 100 0.0 S 28 48 15 26 1011.0 1010.7 2.8
31/08:30am 11.7 6.9 11.7 100 0.0 SSW 28 44 15 24 1011.0 1010.7 2.8
31/08:06am 11.8 7.0 11.8 100 0.0 S 28 48 15 26 1011.0 1010.7 2.8
31/08:00am 11.8 6.7 11.8 100 0.0 S 30 48 16 26 1011.0 1010.7 2.8
31/07:33am 11.9 6.8 11.9 100 0.0 S 30 48 16 26 1010.9 1010.6 2.8
31/07:30am 11.7 6.5 11.7 100 0.0 S 30 48 16 26 1010.8 1010.5 2.8
31/07:08am 11.7 6.9 11.7 100 0.0 S 28 46 15 25 1010.8 1010.5 2.8
31/07:00am 11.8 7.0 11.8 100 0.0 S 28 43 15 23 1010.8 1010.5 2.8
31/06:42am 11.7 6.9 11.7 100 0.0 S 28 48 15 26 1010.8 1010.5 2.8
31/06:30am 11.7 7.3 11.7 100 0.0 S 26 43 14 23 1010.8 1010.5 2.8
31/06:13am 11.8 7.0 11.8 100 0.0 S 28 48 15 26 1010.7 1010.4 2.6
31/06:00am 11.8 6.7 11.8 100 0.0 S 30 46 16 25 1010.7 1010.4 2.6
31/05:30am 11.8 7.0 11.8 100 0.0 S 28 44 15 24 1010.5 1010.2 2.2
31/05:00am 11.7 6.5 11.7 100 0.0 S 30 48 16 26 1010.5 1010.2 1.8
31/04:36am 11.7 6.5 11.7 100 0.0 S 30 48 16 26 1010.6 1010.3 1.8
31/04:30am 11.6 6.8 11.6 100 0.0 S 28 46 15 25 1010.7 1010.4 1.8
31/04:00am 11.7 6.9 11.7 100 0.0 S 28 46 15 25 1010.9 1010.6 1.6
31/03:30am 11.8 6.7 11.8 100 0.0 S 30 50 16 27 1011.2 1010.9 1.4
31/03:00am 11.7 6.9 11.7 100 0.0 S 28 52 15 28 1011.5 1011.2 1.2
31/02:32am 11.6 6.8 11.6 100 0.0 S 28 48 15 26 1011.5 1011.2 1.0
31/02:30am 11.7 6.9 11.7 100 0.0 S 28 46 15 25 1011.6 1011.3 1.0
31/02:00am 11.7 6.9 11.7 100 0.0 S 28 44 15 24 1011.9 1011.6 1.0
31/01:36am 11.6 6.8 11.6 100 0.0 S 28 46 15 25 1012.1 1011.8 1.0
31/01:30am 11.8 7.4 11.8 100 0.0 S 26 43 14 23 1012.2 1011.9 1.0
31/01:00am 11.6 6.8 11.6 100 0.0 S 28 43 15 23 1012.4 1012.1 0.8
31/12:30am 11.4 6.9 11.4 100 0.0 S 26 44 14 24 1012.6 1012.3 0.8
31/12:00am 11.3 6.4 11.3 100 0.0 S 28 44 15 24 1012.8 1012.5 0.6
 
Date/Time
EDT
Tmp

°C
App
Tmp
°C
Dew
Point
°C
Rel
Hum
%
Delta-T

°C
Wind Press
QNH
hPa
Press
MSL
hPa
Rain
since
9 am
mm
Dir
 
Spd
km/h
Gust
km/h
Spd
kts
Gust
kts
30/11:30pm 11.3 6.8 11.3 100 0.0 S 26 43 14 23 1013.1 1012.8 0.4
30/11:08pm 11.6 6.8 11.6 100 0.0 S 28 46 15 25 1013.4 1013.1 0.2
30/11:00pm 11.5 7.0 11.5 100 0.0 S 26 43 14 23 1013.5 1013.3 0.2
30/10:30pm 11.5 6.6 11.3 99 0.1 S 28 43 15 23 1013.8 1013.6 0.0
30/10:00pm 11.7 6.4 11.4 98 0.2 S 30 54 16 29 1014.2 1014.0 0.0
30/09:30pm 11.6 6.6 11.1 97 0.3 S 28 48 15 26 1014.3 1014.1 0.0
30/09:00pm 11.3 6.3 11.1 99 0.1 S 28 48 15 26 1014.3 1014.1 0.0
30/08:30pm 11.3 6.3 11.0 98 0.2 S 28 50 15 27 1014.5 1014.2 0.0
30/08:03pm 11.6 6.4 10.2 91 0.7 S 28 48 15 26 1014.5 1014.2 0.0
30/08:00pm 11.8 6.6 10.2 90 0.8 S 28 44 15 24 1014.5 1014.2 0.0
30/07:50pm 11.5 6.2 9.9 90 0.8 S 28 46 15 25 1014.6 1014.3 0.0
30/07:30pm 11.6 6.8 10.3 92 0.7 S 26 44 14 24 1014.6 1014.3 0.0
30/07:04pm 11.6 6.4 10.3 92 0.7 S 28 46 15 25 1014.6 1014.3 0.0
30/07:00pm 11.8 7.0 10.4 91 0.7 S 26 41 14 22 1014.7 1014.4 0.0
30/06:30pm 11.4 6.7 10.6 95 0.4 S 26 44 14 24 1014.8 1014.5 0.0
30/06:00pm 12.0 7.0 9.7 86 1.2 S 26 46 14 25 1015.0 1014.7 0.0
30/05:30pm 11.8 6.8 9.4 85 1.2 S 26 41 14 22 1015.3 1015.0 0.0
30/05:00pm 12.0 7.4 9.7 86 1.2 S 24 39 13 21 1015.6 1015.3 0.0
30/04:35pm 11.9 6.7 10.3 90 0.8 S 28 48 15 26 1015.8 1015.5 0.0
30/04:30pm 11.8 6.5 9.9 88 1.0 SSE 28 46 15 25 1015.9 1015.6 0.0
30/04:07pm 11.9 6.6 10.0 88 1.0 S 28 52 15 28 1016.0 1015.7 0.0
30/04:00pm 12.1 7.0 9.1 82 1.5 SSE 26 52 14 28 1015.9 1015.6 0.0
30/03:37pm 12.7 7.4 9.7 82 1.5 SSE 28 50 15 27 1016.1 1015.8 0.0
30/03:30pm 13.1 8.5 9.5 79 1.9 SSE 24 48 13 26 1016.2 1015.9 0.0
30/03:08pm 13.2 7.9 9.8 80 1.8 SSE 28 46 15 25 1016.4 1016.1 0.0
30/03:00pm 13.1 8.5 9.7 80 1.8 SSE 24 43 13 23 1016.6 1016.3 0.0
30/02:30pm 13.0 8.4 9.6 80 1.8 SSE 24 43 13 23 1016.8 1016.5 0.0
30/02:00pm 12.5 6.2 9.1 80 1.7 SSE 32 52 17 28 1016.9 1016.6 0.0
30/01:38pm 12.4 7.0 9.6 83 1.4 SSE 28 50 15 27 1016.9 1016.6 0.0
30/01:30pm 12.5 7.6 10.0 85 1.3 SSE 26 50 14 27 1017.0 1016.7 0.0
30/01:01pm 11.9 5.9 10.1 89 0.9 SSE 32 50 17 27 1017.3 1017.1 0.0
30/01:00pm 11.8 5.6 10.0 89 0.9 SSE 33 50 18 27 1017.3 1017.1 0.0

Latest Capital City Observations: Canberra | Sydney | Melbourne | Brisbane | Adelaide | Perth | Hobart | Darwin

Other Formats:

Comma delimited format used in spreadsheet applications
http://www.bom.gov.au/fwo/IDT60901/IDT60901.95986.axf

JavaScript Object Notation format (JSON) in row-major order
http://www.bom.gov.au/fwo/IDT60901/IDT60901.95986.json